TONO2: Salt Fork Arkansas R., Tonkawa, OK

Data processed at Thu Jan 04 2018 23:36


All information presented herein is the property of the government of the United States of America and may be revised or deleted at any time without prior notice.
Dissemination of this information without the expressed written consent of the Public Affairs Office, Tulsa District U.S. Army Corps of Engineers is strictly prohibited.
These data are gathered electronically and, as presented, have not undergone any form of quality control. These data are not guaranteed to be valid or correct.
Go to home page.
Go to station list.

Upstream stations:

Downstream station:
Previous Day
Next Day
Current Day
    
SHEF ID:       TONO2     Salt Fork Arkansas River at Tonk
STATION TYPE:  

               PRECIP     STAGE  STAGE(2)  RIV-FLOW  BAT-LOAD
                   in        ft        ft       cfs      volt
              Ccp-Rev   Ccp-Rev   Ccp-Rev   Ccp-Rev   Ccp-Rev
(US/Central)
01/02 00:00      0.00      3.60      3.45       178     12.49
01/02 01:00      0.00      3.67      3.45       197     12.49
01/02 02:00      0.00      3.61      3.46       181     12.41
01/02 03:00      0.00      3.59      3.45       175     12.41
01/02 04:00      0.00      3.64      3.44       189     12.41
01/02 05:00      0.00      3.66      3.45       194     12.41
01/02 06:00      0.00      3.61      3.44       181     12.33
01/02 07:00      0.00      3.62      3.45       183     12.33
01/02 08:00      0.00      3.67      3.45       197     12.25
01/02 09:00      0.00      3.65      3.46       191     12.41
01/02 10:00      0.00      3.62      3.48       183      ----
01/02 11:00      0.00      3.64      3.49       189     13.68
01/02 12:00      0.00      3.65      3.47       191     14.08
01/02 13:00      0.00      3.60      3.42       178     13.60
01/02 14:00      0.00      3.56      3.38       168     13.60
01/02 15:00      0.00      3.56      3.36       168     13.60
01/02 16:00      0.00      3.53      3.33       160     13.60
01/02 17:00      0.00      3.51      3.33       155     13.44
01/02 18:00      0.00      3.51      3.32       155     13.05
01/02 19:00      0.00      3.51      3.32       155     12.73
01/02 20:00      0.00      3.53      3.31       160     12.65
01/02 21:00      0.00      3.59      3.30       175     12.57
01/02 22:00      0.00      3.59      3.31       175     12.57
01/02 23:00      0.00      3.50      3.31       153     12.49